Time;durP1;ratioP1;P1;durP2;ratioP2;P2;SDS_P1;SDS_P2;PMS_P1;PMS_P2;Temp;Humidity;BMP_temperature;BMP_pressure;BME280_temperature;BME280_humidity;BME280_pressure;Samples;Min_cycle;Max_cycle;Signal;HPM_P1;HPM_P2
2022/03/19 00:02:41;;;;;;;0.40;0.40;;;6.60;99.90;;;;;;5064277;28;20489;-66
2022/03/19 00:05:29;;;;;;;0.50;0.50;;;6.50;99.90;;;;;;5061468;28;20464;-66
2022/03/19 00:08:17;;;;;;;0.50;0.50;;;6.50;99.90;;;;;;5056455;28;20425;-65
2022/03/19 00:11:04;;;;;;;0.50;0.50;;;6.60;99.90;;;;;;5056325;28;20420;-65
2022/03/19 00:13:51;;;;;;;0.50;0.50;;;6.40;99.90;;;;;;5055069;28;21073;-65
2022/03/19 00:16:38;;;;;;;0.50;0.50;;;6.30;99.90;;;;;;5055651;28;20421;-65
2022/03/19 00:19:25;;;;;;;0.40;0.40;;;6.20;99.90;;;;;;5055454;28;20428;-66
2022/03/19 00:22:13;;;;;;;0.50;0.50;;;6.20;99.90;;;;;;5055228;28;20440;-66
2022/03/19 00:25:01;;;;;;;0.50;0.50;;;6.10;99.90;;;;;;5055611;28;20518;-65
2022/03/19 00:27:48;;;;;;;0.50;0.50;;;5.90;99.90;;;;;;5055472;28;20436;-66
2022/03/19 00:30:34;;;;;;;0.50;0.50;;;5.90;99.90;;;;;;5055860;28;20429;-66
2022/03/19 00:33:21;;;;;;;0.40;0.40;;;5.90;99.90;;;;;;5054644;28;20451;-66
2022/03/19 00:36:08;;;;;;;0.50;0.50;;;5.80;99.90;;;;;;5055243;28;20424;-65
2022/03/19 00:38:57;;;;;;;0.50;0.50;;;5.80;99.90;;;;;;5055333;28;20420;-66
2022/03/19 00:41:44;;;;;;;0.50;0.50;;;5.70;99.90;;;;;;5054675;28;20420;-65
2022/03/19 00:44:30;;;;;;;0.50;0.50;;;5.70;99.90;;;;;;5055028;28;21007;-65
2022/03/19 00:47:17;;;;;;;0.50;0.50;;;5.60;99.90;;;;;;5055437;28;20429;-65
2022/03/19 00:50:05;;;;;;;0.50;0.50;;;5.60;99.90;;;;;;5055048;28;20457;-65
2022/03/19 00:52:52;;;;;;;0.60;0.60;;;5.60;99.90;;;;;;5054775;28;20444;-65
2022/03/19 00:55:40;;;;;;;0.50;0.50;;;5.60;99.90;;;;;;5055113;28;20420;-65
2022/03/19 00:58:27;;;;;;;0.60;0.60;;;5.60;99.90;;;;;;5054965;28;20421;-65
2022/03/19 01:01:14;;;;;;;0.40;0.40;;;5.50;99.90;;;;;;5054183;28;20514;-64
2022/03/19 01:04:01;;;;;;;0.50;0.50;;;5.60;99.90;;;;;;5055124;28;20428;-65
2022/03/19 01:06:48;;;;;;;0.50;0.50;;;5.60;99.90;;;;;;5054598;28;20436;-65
2022/03/19 01:09:35;;;;;;;0.50;0.50;;;5.60;99.90;;;;;;5055245;28;20448;-69
2022/03/19 01:12:23;;;;;;;0.40;0.40;;;5.50;99.90;;;;;;5054164;28;20455;-65
2022/03/19 01:15:10;;;;;;;0.50;0.50;;;5.50;99.90;;;;;;5054503;28;20424;-66
2022/03/19 01:17:57;;;;;;;0.50;0.50;;;5.30;99.90;;;;;;5054681;28;20432;-66
2022/03/19 01:20:44;;;;;;;0.50;0.50;;;5.30;99.90;;;;;;5054451;28;20416;-65
2022/03/19 01:23:31;;;;;;;0.50;0.50;;;5.20;99.90;;;;;;5054191;28;20436;-65
2022/03/19 01:26:18;;;;;;;0.50;0.50;;;5.20;99.90;;;;;;5054175;28;20610;-65
2022/03/19 01:29:06;;;;;;;0.50;0.50;;;5.00;99.90;;;;;;5053528;28;20425;-65
2022/03/19 01:31:53;;;;;;;0.50;0.50;;;5.10;99.90;;;;;;5053795;28;20447;-65
2022/03/19 01:34:40;;;;;;;0.50;0.50;;;5.00;99.90;;;;;;5054090;28;20474;-65
2022/03/19 01:37:27;;;;;;;0.50;0.50;;;5.00;99.90;;;;;;5054002;28;20432;-65
2022/03/19 01:40:16;;;;;;;0.50;0.50;;;5.00;99.90;;;;;;5054255;28;20448;-65
2022/03/19 01:43:03;;;;;;;0.40;0.40;;;5.00;99.90;;;;;;5054027;28;20857;-66
2022/03/19 01:45:52;;;;;;;0.50;0.50;;;5.00;99.90;;;;;;5054024;28;21070;-65
2022/03/19 01:48:39;;;;;;;0.50;0.50;;;4.80;99.90;;;;;;5053952;28;20921;-65
2022/03/19 01:51:26;;;;;;;0.50;0.50;;;4.80;99.90;;;;;;5053820;28;20428;-65
2022/03/19 01:54:13;;;;;;;0.40;0.40;;;4.70;99.90;;;;;;5054166;28;21014;-65
2022/03/19 01:57:01;;;;;;;0.50;0.50;;;4.70;99.90;;;;;;5056329;28;20482;-65
2022/03/19 01:59:48;;;;;;;0.47;0.47;;;4.60;99.90;;;;;;5055351;28;20439;-65
2022/03/19 02:02:37;;;;;;;0.50;0.50;;;4.50;99.90;;;;;;5054612;28;20492;-65
2022/03/19 02:05:25;;;;;;;0.63;0.63;;;4.40;99.90;;;;;;5048776;28;20472;-65
2022/03/19 02:08:12;;;;;;;0.50;0.50;;;4.30;99.90;;;;;;5049990;28;20420;-64
2022/03/19 02:10:59;;;;;;;0.50;0.50;;;4.30;99.90;;;;;;5053411;28;20963;-65
2022/03/19 02:13:46;;;;;;;0.40;0.40;;;4.20;99.90;;;;;;5053050;28;20537;-64
2022/03/19 02:16:33;;;;;;;0.40;0.40;;;4.30;99.90;;;;;;5053588;28;20971;-65
2022/03/19 02:19:22;;;;;;;0.60;0.60;;;4.30;99.90;;;;;;5053672;28;20420;-64
2022/03/19 02:22:09;;;;;;;0.40;0.40;;;4.30;99.90;;;;;;5053039;28;20481;-65
2022/03/19 02:28:02;;;;;;;0.50;0.50;;;4.20;99.90;;;;;;5053901;28;20421;-65
2022/03/19 02:30:50;;;;;;;0.50;0.50;;;4.10;99.90;;;;;;5053169;28;20424;-65
2022/03/19 02:33:36;;;;;;;0.50;0.50;;;4.10;99.90;;;;;;5052671;28;20447;-65
2022/03/19 02:36:23;;;;;;;1.37;1.37;;;4.00;99.90;;;;;;5053053;28;20421;-65
2022/03/19 02:39:13;;;;;;;0.50;0.50;;;3.90;99.90;;;;;;5051913;28;20850;-65
2022/03/19 02:42:04;;;;;;;0.50;0.50;;;4.00;99.90;;;;;;5053380;28;20557;-65
2022/03/19 02:44:51;;;;;;;0.40;0.40;;;3.80;99.90;;;;;;5053041;28;20578;-65
2022/03/19 02:47:56;;;;;;;0.50;0.50;;;3.80;99.90;;;;;;5052592;28;20424;-65
2022/03/19 02:50:43;;;;;;;0.50;0.50;;;3.70;99.90;;;;;;5052857;28;20425;-65
2022/03/19 02:53:30;;;;;;;0.50;0.50;;;3.70;99.90;;;;;;5052624;28;20842;-65
2022/03/19 02:56:17;;;;;;;0.50;0.50;;;3.60;99.90;;;;;;5054129;28;20423;-65
2022/03/19 02:59:11;;;;;;;0.40;0.40;;;3.50;99.90;;;;;;5056080;28;20870;-65
2022/03/19 03:02:00;;;;;;;1.67;1.57;;;3.50;99.90;;;;;;5056291;28;20497;-65
2022/03/19 03:04:47;;;;;;;0.50;0.50;;;3.50;99.90;;;;;;5050942;28;20417;-65
2022/03/19 03:07:34;;;;;;;0.50;0.50;;;3.50;99.90;;;;;;5056083;28;20486;-65
2022/03/19 03:10:21;;;;;;;0.50;0.50;;;3.50;99.90;;;;;;5060908;28;20428;-65
2022/03/19 03:13:08;;;;;;;0.50;0.50;;;3.40;99.90;;;;;;5075755;28;20456;-65
2022/03/19 03:15:56;;;;;;;0.50;0.50;;;3.50;99.90;;;;;;5071904;28;20424;-65
2022/03/19 03:18:43;;;;;;;0.40;0.40;;;3.40;99.90;;;;;;5076154;28;20467;-65
2022/03/19 03:21:30;;;;;;;0.50;0.50;;;3.40;99.90;;;;;;5074102;28;20421;-65
2022/03/19 03:24:17;;;;;;;0.50;0.50;;;3.40;99.90;;;;;;5074037;28;20420;-65
2022/03/19 03:27:04;;;;;;;0.50;0.50;;;3.40;99.90;;;;;;5059062;28;20492;-65
2022/03/19 03:29:51;;;;;;;0.50;0.50;;;3.40;99.90;;;;;;5056710;28;20436;-65
2022/03/19 03:32:39;;;;;;;0.50;0.50;;;3.30;99.90;;;;;;5056289;28;20455;-65
2022/03/19 03:35:26;;;;;;;0.50;0.50;;;3.30;99.90;;;;;;5056289;28;20478;-65
2022/03/19 03:38:13;;;;;;;0.40;0.40;;;3.30;99.90;;;;;;5057016;28;20424;-65
2022/03/19 03:41:00;;;;;;;0.50;0.50;;;3.30;99.90;;;;;;5055964;28;20825;-65
2022/03/19 03:43:47;;;;;;;0.50;0.50;;;3.20;99.90;;;;;;5056937;28;20445;-65
2022/03/19 03:46:34;;;;;;;0.50;0.50;;;3.20;99.90;;;;;;5056605;28;20460;-65
2022/03/19 03:49:22;;;;;;;0.60;0.60;;;3.20;99.90;;;;;;5067868;28;20432;-66
2022/03/19 03:52:09;;;;;;;0.50;0.50;;;3.20;99.90;;;;;;5074740;28;20449;-65
2022/03/19 03:54:56;;;;;;;0.50;0.50;;;3.10;99.90;;;;;;5055502;28;20448;-65
2022/03/19 03:57:43;;;;;;;0.50;0.50;;;3.10;99.90;;;;;;5055526;28;20425;-65
2022/03/19 04:00:30;;;;;;;0.50;0.50;;;3.00;99.90;;;;;;5055901;28;20424;-65
2022/03/19 04:03:17;;;;;;;0.50;0.50;;;2.90;99.90;;;;;;5054718;28;20468;-65
2022/03/19 04:06:06;;;;;;;0.50;0.50;;;3.10;99.90;;;;;;5055490;28;20602;-65
2022/03/19 04:08:53;;;;;;;0.50;0.50;;;3.00;99.90;;;;;;5055690;28;20792;-65
2022/03/19 04:11:40;;;;;;;0.80;0.80;;;2.90;99.90;;;;;;5054852;28;20425;-65
2022/03/19 04:14:26;;;;;;;0.60;0.60;;;2.90;99.90;;;;;;5055349;28;20484;-65
2022/03/19 04:17:13;;;;;;;0.40;0.40;;;2.80;99.90;;;;;;5054876;28;20989;-65
2022/03/19 04:20:00;;;;;;;0.50;0.50;;;2.80;99.90;;;;;;5054775;28;20504;-65
2022/03/19 04:22:49;;;;;;;0.50;0.50;;;2.70;99.90;;;;;;5068598;28;20448;-65
2022/03/19 04:25:36;;;;;;;0.50;0.50;;;2.70;99.90;;;;;;5074809;28;20471;-66
2022/03/19 04:28:22;;;;;;;0.50;0.50;;;2.70;99.90;;;;;;5075303;28;20429;-65
2022/03/19 04:31:09;;;;;;;0.50;0.50;;;2.60;99.90;;;;;;5074468;28;20421;-65
2022/03/19 04:33:56;;;;;;;0.50;0.50;;;2.60;99.90;;;;;;5075063;28;20447;-65
2022/03/19 04:36:43;;;;;;;0.50;0.50;;;2.50;99.90;;;;;;5075092;28;20455;-66
2022/03/19 04:39:31;;;;;;;0.50;0.50;;;2.40;99.90;;;;;;5074632;28;20429;-65
2022/03/19 04:42:18;;;;;;;0.50;0.50;;;2.50;99.90;;;;;;5074508;28;20446;-65
2022/03/19 04:45:06;;;;;;;0.50;0.50;;;2.40;99.90;;;;;;5075676;28;20437;-65
2022/03/19 04:47:53;;;;;;;0.50;0.50;;;2.40;99.90;;;;;;5074125;28;20423;-65
2022/03/19 04:50:43;;;;;;;0.50;0.50;;;2.30;99.90;;;;;;5075789;28;20425;-65
2022/03/19 04:53:31;;;;;;;0.50;0.50;;;2.20;99.90;;;;;;5072540;28;20461;-65
2022/03/19 04:56:21;;;;;;;0.50;0.50;;;2.20;99.90;;;;;;5054857;28;20456;-65
2022/03/19 04:59:11;;;;;;;0.50;0.50;;;2.20;99.90;;;;;;5055142;28;20507;-65
2022/03/19 05:01:58;;;;;;;0.50;0.50;;;2.10;99.90;;;;;;5054750;28;20824;-65
2022/03/19 05:04:45;;;;;;;0.50;0.50;;;2.10;99.90;;;;;;5054725;28;20420;-65
2022/03/19 05:07:35;;;;;;;0.50;0.50;;;2.20;99.90;;;;;;5054466;28;20528;-65
2022/03/19 05:13:28;;;;;;;0.50;0.50;;;2.00;99.90;;;;;;5054827;28;20449;-65
2022/03/19 05:16:15;;;;;;;0.50;0.50;;;2.10;99.90;;;;;;5054224;28;20868;-65
2022/03/19 05:19:03;;;;;;;0.50;0.50;;;2.10;99.90;;;;;;5053071;28;20478;-65
2022/03/19 05:21:50;;;;;;;1.50;1.40;;;2.10;99.90;;;;;;5053870;28;20498;-65
2022/03/19 05:24:37;;;;;;;0.50;0.50;;;2.10;99.90;;;;;;5054705;28;20467;-65
2022/03/19 05:27:24;;;;;;;0.50;0.50;;;2.00;99.90;;;;;;5054153;28;21000;-65
2022/03/19 05:30:12;;;;;;;0.50;0.50;;;2.00;99.90;;;;;;5054158;28;20425;-65
2022/03/19 05:32:59;;;;;;;0.50;0.50;;;2.00;99.90;;;;;;5054274;28;20473;-65
2022/03/19 05:35:48;;;;;;;0.50;0.50;;;2.00;99.90;;;;;;5053877;28;20510;-65
2022/03/19 05:38:35;;;;;;;0.50;0.50;;;2.00;99.90;;;;;;5053908;28;20425;-64
2022/03/19 05:41:22;;;;;;;0.50;0.50;;;2.10;99.90;;;;;;5053424;28;20437;-65
2022/03/19 05:44:09;;;;;;;0.50;0.50;;;2.10;99.90;;;;;;5053419;28;20926;-65
2022/03/19 05:46:58;;;;;;;0.50;0.50;;;2.30;99.90;;;;;;5054182;28;20456;-65
2022/03/19 05:49:45;;;;;;;0.60;0.60;;;2.50;99.90;;;;;;5053897;28;20433;-65
2022/03/19 05:52:32;;;;;;;0.50;0.50;;;2.50;99.90;;;;;;5052413;28;20445;-64
2022/03/19 05:55:18;;;;;;;0.50;0.50;;;2.40;99.90;;;;;;5053242;28;20440;-65
2022/03/19 05:58:05;;;;;;;0.50;0.50;;;2.40;99.90;;;;;;5052774;28;20852;-65
2022/03/19 06:00:53;;;;;;;0.50;0.50;;;2.40;99.90;;;;;;5053413;28;20428;-65
2022/03/19 06:03:41;;;;;;;0.57;0.57;;;2.50;99.90;;;;;;5053030;28;20602;-64
2022/03/19 06:06:29;;;;;;;0.83;0.83;;;2.50;99.90;;;;;;5053067;28;20503;-65
2022/03/19 06:09:16;;;;;;;0.73;0.70;;;2.50;99.90;;;;;;5053929;28;20421;-65
2022/03/19 06:12:04;;;;;;;0.50;0.50;;;2.50;99.90;;;;;;5052892;28;20502;-65
2022/03/19 06:14:53;;;;;;;0.40;0.40;;;2.50;99.90;;;;;;5053193;28;20470;-65
2022/03/19 06:17:40;;;;;;;0.67;0.67;;;2.60;99.90;;;;;;5053283;28;20481;-65
2022/03/19 06:20:28;;;;;;;1.90;1.80;;;2.70;99.90;;;;;;5052891;28;20803;-65
2022/03/19 06:23:15;;;;;;;0.60;0.60;;;2.70;99.90;;;;;;5057839;28;20440;-65
2022/03/19 06:26:02;;;;;;;0.50;0.50;;;2.80;99.90;;;;;;5074763;28;20498;-65
2022/03/19 06:28:49;;;;;;;4.20;1.43;;;2.80;99.90;;;;;;5064313;28;20979;-65
2022/03/19 06:31:36;;;;;;;2.40;0.60;;;3.10;99.90;;;;;;5061600;28;20863;-66
2022/03/19 06:34:23;;;;;;;0.50;0.50;;;2.90;99.90;;;;;;5063756;28;20451;-65
2022/03/19 06:37:19;;;;;;;0.50;0.50;;;3.10;99.90;;;;;;5058326;28;20425;-65
2022/03/19 06:40:08;;;;;;;0.63;0.63;;;3.10;99.90;;;;;;5070959;28;20453;-65
2022/03/19 06:42:55;;;;;;;0.50;0.50;;;3.10;99.90;;;;;;5064941;28;20444;-65
2022/03/19 06:45:42;;;;;;;0.60;0.60;;;3.10;99.90;;;;;;5059513;28;20424;-66
2022/03/19 06:48:29;;;;;;;0.80;0.80;;;3.20;99.90;;;;;;5058027;28;20498;-66
2022/03/19 06:51:15;;;;;;;0.60;0.60;;;3.30;99.90;;;;;;5056984;28;20846;-66
2022/03/19 06:54:04;;;;;;;0.50;0.50;;;3.30;99.90;;;;;;5057309;28;20475;-66
2022/03/19 06:56:52;;;;;;;0.60;0.60;;;3.40;99.90;;;;;;5050793;28;20417;-66
2022/03/19 06:59:39;;;;;;;0.50;0.50;;;3.40;99.90;;;;;;5055969;28;20436;-66
2022/03/19 07:02:26;;;;;;;0.50;0.50;;;3.50;99.90;;;;;;5058891;28;20485;-65
2022/03/19 07:05:12;;;;;;;0.50;0.50;;;3.60;99.90;;;;;;5077711;28;20429;-65
2022/03/19 07:08:01;;;;;;;0.50;0.50;;;3.70;99.90;;;;;;5073944;28;20460;-66
2022/03/19 07:10:49;;;;;;;0.50;0.50;;;3.70;99.90;;;;;;5056695;28;20853;-66
2022/03/19 07:13:37;;;;;;;1.07;0.93;;;3.80;99.90;;;;;;5055872;28;20484;-66
2022/03/19 07:16:23;;;;;;;0.50;0.50;;;3.90;99.90;;;;;;5056456;28;20497;-66
2022/03/19 07:19:11;;;;;;;0.50;0.50;;;3.90;99.90;;;;;;5056014;28;20776;-66
2022/03/19 07:21:58;;;;;;;0.50;0.50;;;4.10;99.90;;;;;;5056082;28;20444;-66
2022/03/19 07:24:45;;;;;;;0.80;0.80;;;4.10;99.90;;;;;;5056033;28;20481;-66
2022/03/19 07:27:34;;;;;;;0.70;0.70;;;4.40;99.90;;;;;;5055722;28;20459;-66
2022/03/19 07:30:22;;;;;;;0.50;0.50;;;4.30;99.90;;;;;;5056573;28;20788;-66
2022/03/19 07:33:09;;;;;;;0.43;0.43;;;4.40;99.90;;;;;;5055100;28;20482;-65
2022/03/19 07:35:56;;;;;;;0.50;0.50;;;4.50;99.90;;;;;;5055462;28;20519;-67
2022/03/19 07:38:43;;;;;;;0.63;0.63;;;4.70;99.90;;;;;;5055529;28;20490;-66
2022/03/19 07:41:48;;;;;;;0.50;0.50;;;4.80;99.90;;;;;;5054731;28;20922;-67
2022/03/19 07:44:36;;;;;;;0.53;0.53;;;4.80;99.90;;;;;;5055435;28;20510;-66
2022/03/19 07:47:23;;;;;;;0.50;0.50;;;5.00;99.90;;;;;;5055464;28;20551;-66
2022/03/19 07:50:10;;;;;;;0.50;0.50;;;5.00;99.90;;;;;;5056059;28;20455;-66
2022/03/19 07:52:58;;;;;;;0.40;0.40;;;5.10;99.90;;;;;;5055566;28;20530;-66
2022/03/19 07:55:45;;;;;;;0.50;0.50;;;5.10;99.90;;;;;;5055636;28;20566;-66
2022/03/19 07:58:32;;;;;;;0.60;0.60;;;5.30;99.90;;;;;;5054325;28;20563;-66
2022/03/19 08:01:20;;;;;;;0.50;0.50;;;5.40;99.90;;;;;;5054389;28;20463;-66
2022/03/19 08:04:07;;;;;;;0.40;0.40;;;5.40;99.90;;;;;;5054806;28;20425;-66
2022/03/19 08:06:55;;;;;;;0.50;0.50;;;5.60;99.90;;;;;;5054875;28;20968;-68
2022/03/19 08:09:42;;;;;;;0.50;0.50;;;5.70;99.90;;;;;;5055133;28;20425;-66
2022/03/19 08:12:29;;;;;;;0.50;0.50;;;5.70;99.90;;;;;;5055001;28;20467;-66
2022/03/19 08:15:17;;;;;;;0.40;0.40;;;5.90;99.90;;;;;;5054395;28;20933;-66
2022/03/19 08:18:06;;;;;;;1.47;0.60;;;6.00;99.90;;;;;;5054771;28;20532;-66
2022/03/19 08:20:53;;;;;;;0.50;0.50;;;6.00;99.90;;;;;;5055871;28;20432;-66
2022/03/19 08:23:40;;;;;;;0.50;0.50;;;6.10;99.90;;;;;;5055574;28;20436;-65
2022/03/19 08:26:27;;;;;;;0.50;0.50;;;6.30;99.90;;;;;;5056204;28;21005;-66
2022/03/19 08:29:14;;;;;;;0.50;0.50;;;6.30;99.90;;;;;;5057076;28;20428;-66
2022/03/19 08:32:01;;;;;;;0.50;0.50;;;6.30;99.90;;;;;;5055845;28;20452;-67
2022/03/19 08:34:49;;;;;;;2.60;1.37;;;6.40;99.90;;;;;;5055558;28;20459;-66
2022/03/19 08:37:36;;;;;;;0.50;0.50;;;6.40;99.90;;;;;;5054898;28;20427;-67
2022/03/19 08:40:24;;;;;;;0.40;0.40;;;6.50;99.90;;;;;;5056732;28;20429;-66
2022/03/19 08:43:11;;;;;;;0.40;0.40;;;6.60;99.90;;;;;;5055058;28;20440;-68
2022/03/19 08:45:59;;;;;;;0.40;0.40;;;6.60;99.90;;;;;;5054017;28;20815;-67
2022/03/19 08:48:46;;;;;;;0.50;0.50;;;6.70;99.90;;;;;;5054901;28;20475;-68
2022/03/19 08:51:40;;;;;;;0.50;0.50;;;6.80;99.90;;;;;;5054663;28;20512;-68
2022/03/19 08:54:27;;;;;;;0.50;0.50;;;7.00;99.90;;;;;;5054902;28;20472;-67
2022/03/19 08:57:14;;;;;;;0.50;0.50;;;7.10;99.90;;;;;;5054899;28;20421;-66
2022/03/19 09:00:01;;;;;;;0.60;0.60;;;7.20;99.90;;;;;;5053953;28;20454;-66
2022/03/19 09:02:49;;;;;;;0.50;0.50;;;7.20;99.90;;;;;;5054496;28;20823;-66
2022/03/19 09:05:36;;;;;;;0.50;0.50;;;7.30;99.90;;;;;;5054601;28;20435;-66
2022/03/19 09:08:24;;;;;;;0.40;0.40;;;7.40;99.90;;;;;;5053649;28;20477;-67
2022/03/19 09:11:11;;;;;;;0.50;0.50;;;7.70;99.90;;;;;;5053600;28;20507;-69
2022/03/19 09:13:59;;;;;;;0.50;0.50;;;7.90;99.90;;;;;;5053328;28;20417;-67
2022/03/19 09:16:46;;;;;;;0.50;0.50;;;8.10;99.90;;;;;;5053113;28;20483;-66
2022/03/19 09:19:32;;;;;;;0.40;0.40;;;8.30;99.90;;;;;;5053252;28;20453;-69
2022/03/19 09:22:19;;;;;;;0.50;0.50;;;8.30;99.90;;;;;;5052808;28;20466;-67
2022/03/19 09:25:08;;;;;;;0.40;0.40;;;8.50;99.90;;;;;;5053184;28;20518;-68
2022/03/19 09:27:55;;;;;;;0.60;0.60;;;8.30;99.90;;;;;;5053020;28;20561;-68
2022/03/19 09:30:43;;;;;;;0.40;0.40;;;8.30;99.90;;;;;;5053272;28;20428;-68
2022/03/19 09:33:30;;;;;;;0.50;0.50;;;8.20;99.90;;;;;;5052954;28;20972;-66
2022/03/19 09:36:18;;;;;;;0.50;0.50;;;8.10;99.90;;;;;;5053679;28;20439;-67
2022/03/19 09:39:05;;;;;;;0.40;0.40;;;8.20;99.90;;;;;;5052996;28;20444;-65
2022/03/19 09:41:53;;;;;;;0.50;0.50;;;8.20;99.90;;;;;;5053789;28;20476;-66
2022/03/19 09:44:43;;;;;;;0.40;0.40;;;8.10;99.90;;;;;;5053708;28;20429;-68
2022/03/19 09:47:29;;;;;;;0.40;0.40;;;8.10;99.90;;;;;;5053517;28;20471;-66
2022/03/19 09:50:17;;;;;;;0.40;0.40;;;8.20;99.90;;;;;;5052913;28;20435;-69
2022/03/19 09:53:05;;;;;;;0.40;0.40;;;8.20;99.90;;;;;;5057115;28;20448;-67
2022/03/19 09:55:54;;;;;;;0.40;0.40;;;8.20;99.90;;;;;;5056147;28;20933;-68
2022/03/19 09:58:42;;;;;;;0.40;0.40;;;8.30;99.90;;;;;;5056294;28;20420;-66
2022/03/19 10:01:31;;;;;;;0.40;0.40;;;8.40;99.90;;;;;;5055277;28;20490;-66
2022/03/19 10:04:20;;;;;;;0.40;0.40;;;8.50;99.90;;;;;;5055508;28;20818;-68
2022/03/19 10:10:12;;;;;;;0.40;0.40;;;8.70;99.90;;;;;;5054755;28;20417;-68
2022/03/19 10:12:59;;;;;;;0.40;0.40;;;8.80;99.90;;;;;;5053277;28;20508;-68
2022/03/19 10:15:47;;;;;;;0.47;0.47;;;8.80;99.90;;;;;;5054139;28;20456;-66
2022/03/19 10:18:35;;;;;;;0.50;0.50;;;8.90;99.90;;;;;;5053141;28;20428;-67
2022/03/19 10:21:22;;;;;;;0.43;0.43;;;9.00;99.90;;;;;;5053479;28;20420;-69
2022/03/19 10:24:21;;;;;;;0.50;0.50;;;9.00;99.90;;;;;;5053662;28;20514;-68
2022/03/19 10:27:17;;;;;;;0.40;0.40;;;9.20;99.90;;;;;;5052236;28;20963;-66
2022/03/19 10:30:07;;;;;;;0.50;0.50;;;9.50;99.90;;;;;;5052334;28;20947;-66
2022/03/19 10:32:56;;;;;;;0.50;0.50;;;9.80;99.90;;;;;;5051632;28;20464;-65
2022/03/19 10:35:43;;;;;;;0.50;0.50;;;10.10;99.90;;;;;;5052301;28;20511;-69
2022/03/19 10:38:30;;;;;;;0.40;0.40;;;10.30;99.90;;;;;;5052206;28;20420;-67
2022/03/19 10:41:18;;;;;;;0.50;0.50;;;10.70;99.90;;;;;;5052107;28;20439;-68
2022/03/19 10:44:13;;;;;;;0.40;0.40;;;10.60;99.90;;;;;;5051128;28;20490;-66
2022/03/19 10:47:02;;;;;;;0.50;0.50;;;10.60;99.90;;;;;;5051685;28;20498;-68
2022/03/19 10:49:50;;;;;;;0.97;0.73;;;10.60;99.90;;;;;;5050628;28;20929;-67
2022/03/19 10:52:37;;;;;;;0.50;0.50;;;10.50;99.90;;;;;;5051592;28;21018;-70
2022/03/19 10:55:25;;;;;;;0.50;0.50;;;10.40;99.90;;;;;;5052084;28;20826;-68
2022/03/19 10:58:13;;;;;;;0.40;0.40;;;10.20;99.90;;;;;;5051941;28;20431;-69
2022/03/19 11:01:01;;;;;;;1.80;0.60;;;10.20;99.90;;;;;;5051903;28;20425;-69
2022/03/19 11:03:50;;;;;;;0.50;0.50;;;10.20;99.90;;;;;;5051914;28;20502;-67
2022/03/19 11:06:39;;;;;;;0.40;0.40;;;10.40;99.90;;;;;;5051941;28;20507;-65
2022/03/19 11:09:31;;;;;;;0.40;0.40;;;10.50;99.90;;;;;;5051888;28;20574;-66
2022/03/19 11:12:21;;;;;;;0.40;0.40;;;10.40;99.90;;;;;;5072886;22;21347;-67
2022/03/19 11:15:10;;;;;;;0.40;0.40;;;10.60;99.90;;;;;;5035417;28;20429;-66
2022/03/19 11:18:01;;;;;;;1.17;1.17;;;10.80;99.90;;;;;;5037610;28;20507;-66
2022/03/19 11:20:49;;;;;;;0.40;0.40;;;10.90;99.90;;;;;;5038374;28;20426;-68
2022/03/19 11:23:43;;;;;;;0.40;0.40;;;11.10;99.90;;;;;;5051466;28;20440;-64
2022/03/19 11:26:31;;;;;;;0.40;0.40;;;11.20;99.90;;;;;;5058378;28;20427;-65
2022/03/19 11:29:19;;;;;;;0.40;0.40;;;11.50;99.90;;;;;;5058085;28;20565;-67
2022/03/19 11:32:07;;;;;;;0.40;0.40;;;11.90;99.90;;;;;;5057485;28;20432;-64
2022/03/19 11:34:57;;;;;;;0.80;0.50;;;12.20;99.90;;;;;;5057495;28;20421;-65
2022/03/19 11:38:00;;;;;;;0.40;0.40;;;12.40;99.90;;;;;;5057807;28;20413;-65
2022/03/19 11:40:54;;;;;;;1.23;0.90;;;12.40;99.90;;;;;;5057928;28;20416;-64
2022/03/19 11:43:41;;;;;;;0.40;0.40;;;12.30;99.90;;;;;;5059114;28;20440;-64
2022/03/19 11:46:28;;;;;;;0.40;0.40;;;12.20;99.90;;;;;;5058825;28;20425;-65
2022/03/19 11:49:48;;;;;;;0.40;0.40;;;12.10;99.90;;;;;;5063493;28;20517;-66
2022/03/19 11:53:05;;;;;;;0.40;0.40;;;11.90;99.90;;;;;;5070623;28;20445;-65
2022/03/19 11:56:03;;;;;;;0.40;0.40;;;11.80;99.90;;;;;;5072722;28;20421;-65
2022/03/19 11:58:50;;;;;;;0.40;0.40;;;11.80;99.90;;;;;;5074268;28;20421;-66
2022/03/19 12:01:48;;;;;;;1.37;1.27;;;11.80;99.90;;;;;;5073732;28;20429;-65
2022/03/19 12:04:42;;;;;;;0.40;0.40;;;11.90;99.90;;;;;;5060170;28;20523;-65
2022/03/19 12:07:40;;;;;;;0.40;0.40;;;12.40;99.90;;;;;;5058715;28;20471;-65
2022/03/19 12:10:35;;;;;;;0.50;0.50;;;12.70;99.90;;;;;;5057936;28;20428;-65
2022/03/19 12:13:37;;;;;;;0.40;0.40;;;12.90;99.90;;;;;;5057119;28;20452;-65
2022/03/19 12:16:39;;;;;;;0.40;0.40;;;12.70;99.90;;;;;;5057587;28;20538;-66
2022/03/19 12:19:54;;;;;;;0.40;0.40;;;12.40;99.90;;;;;;5056478;28;20447;-65
2022/03/19 12:22:42;;;;;;;0.40;0.40;;;12.30;99.90;;;;;;5056843;28;20440;-66
2022/03/19 12:25:35;;;;;;;0.40;0.40;;;12.30;99.90;;;;;;5056172;28;20671;-65
2022/03/19 12:28:23;;;;;;;0.40;0.40;;;12.10;99.90;;;;;;5055317;28;20853;-65
2022/03/19 12:31:12;;;;;;;0.40;0.40;;;12.10;99.90;;;;;;5056897;28;20498;-67
2022/03/19 12:33:59;;;;;;;0.50;0.50;;;12.10;99.90;;;;;;5056663;28;20813;-66
2022/03/19 12:36:47;;;;;;;0.40;0.40;;;12.10;99.90;;;;;;5057596;28;20448;-67
2022/03/19 12:39:34;;;;;;;0.40;0.40;;;12.10;99.90;;;;;;5056474;28;20557;-66
2022/03/19 12:42:30;;;;;;;0.40;0.40;;;12.20;99.90;;;;;;5056632;28;20482;-66
2022/03/19 12:45:18;;;;;;;0.50;0.50;;;12.10;99.90;;;;;;5056209;28;20810;-65
2022/03/19 12:48:10;;;;;;;0.40;0.40;;;12.00;99.90;;;;;;5057560;28;20957;-65
2022/03/19 12:50:57;;;;;;;0.40;0.40;;;11.90;99.90;;;;;;5056822;28;20428;-66
2022/03/19 12:53:44;;;;;;;0.40;0.40;;;11.80;99.90;;;;;;5056083;28;20502;-65
2022/03/19 12:56:30;;;;;;;0.40;0.40;;;11.60;99.90;;;;;;5054953;28;20416;-65
2022/03/19 12:59:19;;;;;;;0.50;0.50;;;11.50;99.90;;;;;;5055440;28;20458;-65
2022/03/19 13:02:08;;;;;;;1.37;1.10;;;11.50;99.90;;;;;;5054709;28;20429;-65
2022/03/19 13:04:55;;;;;;;0.40;0.40;;;11.70;99.90;;;;;;5055993;28;20932;-65
2022/03/19 13:08:00;;;;;;;0.40;0.40;;;11.80;99.90;;;;;;5055981;28;20436;-65
2022/03/19 13:10:49;;;;;;;0.40;0.40;;;12.20;99.90;;;;;;5055422;28;20420;-67
2022/03/19 13:13:36;;;;;;;0.40;0.40;;;12.50;99.90;;;;;;5056111;28;20470;-65
2022/03/19 13:16:30;;;;;;;0.40;0.40;;;12.90;99.90;;;;;;5054862;28;20488;-65
2022/03/19 13:19:19;;;;;;;2.40;2.20;;;13.50;99.90;;;;;;5056407;28;20423;-65
2022/03/19 13:22:08;;;;;;;0.60;0.60;;;13.40;99.90;;;;;;5054545;28;20440;-65
2022/03/19 13:24:56;;;;;;;0.47;0.47;;;13.20;99.90;;;;;;5055300;28;20443;-65
2022/03/19 13:27:50;;;;;;;0.40;0.40;;;13.30;99.90;;;;;;5054502;28;20420;-65
2022/03/19 13:30:37;;;;;;;9.77;9.10;;;13.40;99.90;;;;;;5054701;28;20445;-67
2022/03/19 13:33:27;;;;;;;0.50;0.50;;;14.20;99.90;;;;;;5054412;28;20483;-65
2022/03/19 13:36:19;;;;;;;0.50;0.50;;;15.40;99.90;;;;;;5054648;28;20498;-65
2022/03/19 13:39:06;;;;;;;0.40;0.40;;;17.10;97.70;;;;;;5054532;28;20463;-65
2022/03/19 13:41:54;;;;;;;1.37;1.37;;;18.30;92.50;;;;;;5054242;28;20416;-66
2022/03/19 13:44:43;;;;;;;3.93;2.17;;;18.80;86.90;;;;;;5055925;28;20225;-65
2022/03/19 13:47:34;;;;;;;0.40;0.40;;;19.00;80.90;;;;;;5054848;28;20206;-66
2022/03/19 13:50:21;;;;;;;2.10;1.98;;;19.20;74.40;;;;;;5054029;28;20205;-66
2022/03/19 13:53:10;;;;;;;0.60;0.60;;;19.50;69.80;;;;;;5054604;28;20226;-66
2022/03/19 13:55:57;;;;;;;0.50;0.50;;;20.30;67.60;;;;;;5055189;28;20229;-66
2022/03/19 13:58:58;;;;;;;1.73;1.63;;;21.20;66.30;;;;;;5054777;28;20286;-66
2022/03/19 14:01:50;;;;;;;0.40;0.40;;;22.30;62.10;;;;;;5054384;28;20255;-66
2022/03/19 14:04:37;;;;;;;0.50;0.50;;;22.90;59.40;;;;;;5055347;28;20201;-66
2022/03/19 14:07:32;;;;;;;0.55;0.55;;;23.00;57.50;;;;;;5055528;28;20233;-66
2022/03/19 14:10:21;;;;;;;1.25;1.25;;;22.60;57.50;;;;;;5054421;28;20695;-66
2022/03/19 14:13:10;;;;;;;1.05;1.05;;;21.90;57.80;;;;;;5055235;28;20229;-66
2022/03/19 14:15:58;;;;;;;0.50;0.50;;;21.70;58.00;;;;;;5054025;28;20596;-66
2022/03/19 14:18:46;;;;;;;2.35;2.25;;;21.90;58.10;;;;;;5055100;28;20227;-66
2022/03/19 14:21:33;;;;;;;0.65;0.65;;;22.00;58.60;;;;;;5054603;28;20197;-66
2022/03/19 14:24:20;;;;;;;1.15;1.15;;;22.10;57.60;;;;;;5055688;28;20615;-66
2022/03/19 14:27:09;;;;;;;1.40;1.00;;;21.30;57.70;;;;;;5053525;28;20273;-66
2022/03/19 14:29:56;;;;;;;2.17;1.98;;;20.70;58.20;;;;;;5054060;28;20756;-66
2022/03/19 14:32:43;;;;;;;0.40;0.40;;;19.80;58.40;;;;;;5071365;28;20248;-65
2022/03/19 14:35:43;;;;;;;1.05;0.70;;;18.90;59.80;;;;;;5074150;28;20202;-66
2022/03/19 14:38:32;;;;;;;0.47;0.45;;;18.50;59.90;;;;;;5072794;28;20228;-66
2022/03/19 14:41:20;;;;;;;1.08;0.95;;;18.40;60.60;;;;;;5074118;28;20229;-66
2022/03/19 14:44:08;;;;;;;0.40;0.40;;;18.40;59.40;;;;;;5072495;28;20202;-66
2022/03/19 14:46:55;;;;;;;2.05;1.35;;;18.90;59.60;;;;;;5073547;28;20186;-66
2022/03/19 14:49:42;;;;;;;0.55;0.55;;;19.50;59.00;;;;;;5072727;28;20233;-66
2022/03/19 14:52:29;;;;;;;0.85;0.85;;;19.70;59.60;;;;;;5073901;28;20233;-65
2022/03/19 14:55:16;;;;;;;0.57;0.57;;;19.70;59.10;;;;;;5076388;28;20229;-66